CPX247 Details

Departure: Los Angeles International Airport (KLAX)
Arrival: Benito Juárez International Airport (MMMX)
Route: PNDAH2 TCATE PPE UT10 ZCL UJ5 TIKEB TIKEB1C


Current Weather Information
KLAX 251053Z 07003KT 10SM SCT010 13/11 A2988 RMK AO2 SLP116 T01330111
MMMX 251043Z 30007KT 5SM BKN020 BKN070 16/10 A3028 NOSIG RMK 8/570 HZY